Terminal Aerodrome Forecast
Issued by NWS Wilmington, OH

Current Version | Previous Version | Graphics & Text | Print | Product List | Glossary On
Versions: 1 2 3 4 5 6 7 8 9 10 11 12 13 14 15 16 17 18 19 20
000
FTUS41 KILN 151100
TAFCMH
TAF
KCMH 151130Z 1512/1612 04006KT P6SM BKN200
     FM151500 08014G22KT P6SM BKN200
     FM160000 08010KT P6SM SCT120 BKN200
     FM160600 11009KT P6SM BKN100=

USA.gov is the U.S. government's official web portal to all federal, state and local government web resources and services.